createdAt,value
2022-08-10T00:02:17.211Z,99.13
2022-08-10T00:04:45.852Z,100.00
2022-08-10T00:07:15.789Z,100.00
2022-08-10T00:09:50.839Z,100.00
2022-08-10T00:12:20.695Z,100.00
2022-08-10T00:14:49.532Z,100.00
2022-08-10T00:17:18.259Z,100.00
2022-08-10T00:20:03.809Z,98.98
2022-08-10T00:22:37.109Z,97.39
2022-08-10T00:25:21.716Z,96.62
2022-08-10T00:28:03.042Z,97.17
2022-08-10T00:30:32.835Z,95.27
2022-08-10T00:33:01.747Z,92.34
2022-08-10T00:35:30.424Z,91.48
2022-08-10T00:38:00.396Z,92.06
2022-08-10T00:40:36.911Z,94.38
2022-08-10T00:43:07.335Z,95.35
2022-08-10T00:45:36.537Z,95.35
2022-08-10T00:48:05.863Z,95.87
2022-08-10T00:50:35.063Z,95.41
2022-08-10T00:53:05.457Z,97.10
2022-08-10T00:57:12.822Z,99.88
2022-08-10T00:58:24.664Z,100.00
2022-08-10T01:00:54.803Z,100.00
2022-08-10T01:04:39.692Z,100.00
2022-08-10T01:06:33.004Z,100.00
2022-08-10T01:09:16.201Z,100.00
2022-08-10T01:12:38.996Z,98.39
2022-08-10T01:14:57.065Z,97.39
2022-08-10T01:17:50.475Z,97.14
2022-08-10T01:20:34.800Z,96.34
2022-08-10T01:24:01.626Z,95.46
2022-08-10T01:26:57.743Z,96.63
2022-08-10T01:29:55.199Z,98.11
2022-08-10T01:32:35.783Z,98.39
2022-08-10T01:35:13.530Z,100.00
2022-08-10T01:37:53.322Z,100.00
2022-08-10T01:40:28.537Z,100.00
2022-08-10T01:43:08.611Z,100.00
2022-08-10T01:45:46.237Z,100.00
2022-08-10T01:48:31.220Z,100.00
2022-08-10T01:51:12.041Z,100.00
2022-08-10T01:53:51.931Z,100.00
2022-08-10T01:56:25.784Z,100.00
2022-08-10T01:58:59.278Z,100.00
2022-08-10T02:01:34.554Z,100.00
2022-08-10T02:04:09.468Z,100.00
2022-08-10T02:06:45.430Z,100.00
2022-08-10T02:09:21.174Z,100.00
2022-08-10T02:12:07.735Z,100.00
2022-08-10T02:14:43.679Z,100.00
2022-08-10T02:17:59.032Z,100.00
2022-08-10T02:20:16.470Z,100.00
2022-08-10T02:22:50.139Z,100.00
2022-08-10T02:25:41.674Z,100.00
2022-08-10T02:28:30.422Z,100.00
2022-08-10T02:31:06.388Z,100.00
2022-08-10T02:33:45.616Z,100.00
2022-08-10T02:36:32.519Z,100.00
2022-08-10T02:39:07.124Z,100.00
2022-08-10T02:42:18.191Z,100.00
2022-08-10T02:45:19.060Z,100.00
2022-08-10T02:47:46.657Z,100.00
2022-08-10T02:50:29.449Z,100.00
2022-08-10T02:53:06.750Z,100.00
2022-08-10T02:55:58.695Z,100.00
2022-08-10T02:58:34.788Z,100.00
2022-08-10T03:01:10.394Z,100.00
2022-08-10T03:03:48.318Z,100.00
2022-08-10T03:06:24.566Z,100.00
2022-08-10T03:08:56.176Z,100.00
2022-08-10T03:12:35.314Z,100.00
2022-08-10T03:14:21.399Z,100.00
2022-08-10T03:16:53.110Z,100.00
2022-08-10T03:20:35.314Z,100.00
2022-08-10T03:22:17.831Z,100.00
2022-08-10T03:24:48.122Z,100.00
2022-08-10T03:27:18.438Z,100.00
2022-08-10T03:30:23.459Z,100.00
2022-08-10T03:32:39.454Z,100.00
2022-08-10T03:35:10.943Z,100.00
2022-08-10T03:37:41.695Z,100.00
2022-08-10T03:40:11.444Z,100.00
2022-08-10T03:42:42.372Z,100.00
2022-08-10T03:45:11.951Z,100.00
2022-08-10T03:47:44.044Z,100.00
2022-08-10T03:50:45.392Z,100.00
2022-08-10T03:53:05.564Z,100.00
2022-08-10T03:56:27.416Z,100.00
2022-08-10T03:58:23.980Z,100.00
2022-08-10T04:00:53.198Z,100.00
2022-08-10T04:03:22.969Z,100.00
2022-08-10T04:05:59.395Z,100.00
2022-08-10T04:08:29.674Z,100.00
2022-08-10T04:10:58.483Z,100.00
2022-08-10T04:13:27.151Z,100.00
2022-08-10T04:15:55.674Z,100.00
2022-08-10T04:18:24.405Z,100.00
2022-08-10T04:21:00.643Z,100.00
2022-08-10T04:23:35.560Z,100.00
2022-08-10T04:26:05.060Z,100.00
2022-08-10T04:28:34.733Z,100.00
2022-08-10T04:31:07.570Z,100.00
2022-08-10T04:33:43.153Z,99.02
2022-08-10T04:36:14.926Z,96.25
2022-08-10T04:38:47.370Z,95.01
2022-08-10T04:41:17.526Z,95.05
2022-08-10T04:43:47.385Z,93.02
2022-08-10T04:46:55.726Z,92.73
2022-08-10T04:49:05.414Z,95.16
2022-08-10T04:51:54.123Z,92.05
2022-08-10T04:54:25.414Z,93.63
2022-08-10T04:56:58.434Z,89.88
2022-08-10T04:59:27.327Z,86.66
2022-08-10T05:02:28.332Z,91.56
2022-08-10T05:04:44.814Z,90.05
2022-08-10T05:07:18.459Z,89.43
2022-08-10T05:10:03.164Z,86.84
2022-08-10T05:12:37.379Z,90.36
2022-08-10T05:15:10.517Z,87.25
2022-08-10T05:17:40.774Z,83.69
2022-08-10T05:20:12.437Z,85.78
2022-08-10T05:22:44.122Z,82.44
2022-08-10T05:25:21.152Z,81.63
2022-08-10T05:27:51.045Z,83.36
2022-08-10T05:30:23.804Z,82.80
2022-08-10T05:32:58.634Z,81.39
2022-08-10T05:35:56.626Z,84.91
2022-08-10T05:38:24.409Z,85.15
2022-08-10T05:40:57.050Z,81.56
2022-08-10T05:43:26.338Z,79.35
2022-08-10T05:46:17.522Z,77.16
2022-08-10T05:48:59.182Z,79.67
2022-08-10T05:51:31.342Z,80.12
2022-08-10T05:54:05.997Z,76.98
2022-08-10T05:56:56.380Z,82.15
2022-08-10T06:00:12.634Z,79.85
2022-08-10T06:02:30.767Z,80.02
2022-08-10T06:05:08.947Z,72.62
2022-08-10T06:07:43.682Z,77.41
2022-08-10T06:10:28.614Z,77.77
2022-08-10T06:13:30.719Z,79.38
2022-08-10T06:16:08.579Z,75.26
2022-08-10T06:18:38.228Z,75.28
2022-08-10T06:21:09.673Z,78.94
2022-08-10T06:23:40.040Z,80.28
2022-08-10T06:26:14.159Z,80.42
2022-08-10T06:29:03.636Z,73.52
2022-08-10T06:31:48.165Z,73.02
2022-08-10T06:34:25.529Z,74.88
2022-08-10T06:36:58.509Z,69.52
2022-08-10T06:39:36.332Z,68.16
2022-08-10T06:42:18.310Z,74.71
2022-08-10T06:44:57.770Z,69.10
2022-08-10T06:47:34.839Z,69.93
2022-08-10T06:50:13.494Z,65.16
2022-08-10T06:52:44.226Z,63.92
2022-08-10T06:55:18.646Z,69.53
2022-08-10T06:58:00.088Z,68.42
2022-08-10T07:00:34.638Z,61.08
2022-08-10T07:03:11.927Z,58.99
2022-08-10T07:05:51.031Z,57.06
2022-08-10T07:08:24.184Z,58.45
2022-08-10T07:10:55.709Z,58.86
2022-08-10T07:14:15.733Z,53.27
2022-08-10T07:16:18.797Z,54.32
2022-08-10T07:18:50.492Z,52.41
2022-08-10T07:21:20.044Z,49.25
2022-08-10T07:23:57.559Z,46.78
2022-08-10T07:26:31.620Z,50.23
2022-08-10T07:29:01.816Z,50.40
2022-08-10T07:31:55.750Z,48.66
2022-08-10T07:34:29.397Z,49.72
2022-08-10T07:37:05.625Z,49.80
2022-08-10T07:39:58.446Z,44.47
2022-08-10T07:42:31.319Z,41.00
2022-08-10T07:45:01.005Z,42.49
2022-08-10T07:47:52.379Z,42.92
2022-08-10T07:50:26.606Z,40.57
2022-08-10T07:53:01.281Z,41.32
2022-08-10T07:56:04.785Z,39.57
2022-08-10T07:58:25.247Z,37.12
2022-08-10T08:00:57.158Z,32.05
2022-08-10T08:03:30.553Z,33.72
2022-08-10T08:06:03.211Z,36.51
2022-08-10T08:08:36.379Z,38.21
2022-08-10T08:11:07.404Z,38.42
2022-08-10T08:13:39.975Z,36.93
2022-08-10T08:16:17.455Z,35.11
2022-08-10T08:19:23.632Z,35.49
2022-08-10T08:24:06.550Z,37.63
2022-08-10T08:24:37.279Z,38.21
2022-08-10T08:27:07.857Z,37.57
2022-08-10T08:29:42.057Z,39.55
2022-08-10T08:32:12.619Z,41.46
2022-08-10T08:34:46.220Z,44.72
2022-08-10T08:38:31.410Z,41.61
2022-08-10T08:40:15.252Z,38.55
2022-08-10T08:43:16.675Z,36.02
2022-08-10T08:46:28.579Z,38.00
2022-08-10T08:50:04.577Z,36.07
2022-08-10T08:52:22.683Z,38.33
2022-08-10T08:56:04.155Z,39.39
2022-08-10T08:58:31.416Z,39.93
2022-08-10T09:01:24.493Z,41.28
2022-08-10T09:04:28.736Z,40.98
2022-08-10T09:07:59.092Z,36.83
2022-08-10T09:10:27.247Z,33.60
2022-08-10T09:13:06.181Z,34.04
2022-08-10T09:15:41.690Z,33.15
2022-08-10T09:18:25.068Z,32.53
2022-08-10T09:21:02.040Z,32.42
2022-08-10T09:24:05.009Z,32.69
2022-08-10T09:26:46.722Z,35.43
2022-08-10T09:29:26.326Z,38.46
2022-08-10T09:36:13.677Z,35.68
2022-08-10T09:36:23.684Z,33.39
2022-08-10T09:38:12.421Z,32.53
2022-08-10T09:41:00.498Z,36.04
2022-08-10T09:43:44.693Z,37.33
2022-08-10T09:46:33.374Z,37.79
2022-08-10T09:49:18.411Z,37.56
2022-08-10T09:52:10.808Z,38.79
2022-08-10T09:54:55.540Z,39.28
2022-08-10T09:57:41.453Z,39.54
2022-08-10T10:00:17.117Z,41.52
2022-08-10T10:03:15.003Z,42.36
2022-08-10T10:05:58.711Z,42.70
2022-08-10T10:08:40.742Z,42.20
2022-08-10T10:11:22.125Z,37.97
2022-08-10T10:14:12.278Z,35.56
2022-08-10T10:16:58.209Z,34.38
2022-08-10T10:19:49.425Z,34.81
2022-08-10T10:22:53.416Z,31.68
2022-08-10T10:25:50.830Z,32.36
2022-08-10T10:29:15.232Z,30.77
2022-08-10T10:31:37.177Z,30.08
2022-08-10T10:34:19.034Z,30.93
2022-08-10T10:36:52.232Z,32.78
2022-08-10T10:39:26.778Z,34.07
2022-08-10T10:42:18.582Z,32.93
2022-08-10T10:45:16.402Z,33.46
2022-08-10T10:48:09.330Z,33.47
2022-08-10T10:51:03.320Z,34.83
2022-08-10T10:53:45.136Z,35.77
2022-08-10T10:56:26.221Z,36.96
2022-08-10T10:59:53.387Z,39.19
2022-08-10T11:02:12.778Z,40.76
2022-08-10T11:05:04.808Z,41.24
2022-08-10T11:07:41.243Z,40.09
2022-08-10T11:10:32.083Z,41.21
2022-08-10T11:14:24.500Z,40.09
2022-08-10T11:16:17.960Z,39.53
2022-08-10T11:18:57.586Z,39.75
2022-08-10T11:21:46.650Z,39.91
2022-08-10T11:24:47.310Z,39.94
2022-08-10T11:27:33.127Z,39.22
2022-08-10T11:30:10.665Z,38.76
2022-08-10T11:32:55.869Z,38.82
2022-08-10T11:35:37.325Z,37.57
2022-08-10T11:38:32.957Z,36.98
2022-08-10T11:42:11.812Z,38.72
2022-08-10T11:44:27.392Z,40.39
2022-08-10T11:47:04.216Z,38.88
2022-08-10T11:49:46.238Z,39.23
2022-08-10T11:52:24.242Z,41.61
2022-08-10T11:54:56.804Z,41.29
2022-08-10T11:57:54.000Z,39.68
2022-08-10T12:00:21.208Z,38.92
2022-08-10T12:02:56.392Z,39.98
2022-08-10T12:05:51.663Z,42.10
2022-08-10T12:10:08.702Z,42.15
2022-08-10T12:11:23.911Z,42.59
2022-08-10T12:14:21.959Z,42.92
2022-08-10T12:17:01.045Z,42.21
2022-08-10T12:19:59.040Z,41.65
2022-08-10T12:22:37.408Z,42.84
2022-08-10T12:25:49.575Z,41.82
2022-08-10T12:28:15.727Z,42.41
2022-08-10T12:30:53.012Z,41.87
2022-08-10T12:33:28.318Z,40.98
2022-08-10T12:36:18.421Z,43.68
2022-08-10T12:39:02.082Z,43.12
2022-08-10T12:41:44.836Z,40.23
2022-08-10T12:44:23.709Z,41.94
2022-08-10T12:47:23.174Z,40.53
2022-08-10T12:50:29.909Z,42.11
2022-08-10T12:53:06.703Z,42.47
2022-08-10T12:55:39.613Z,40.01
2022-08-10T12:58:56.784Z,43.24
2022-08-10T13:01:22.336Z,39.62
2022-08-10T13:04:21.634Z,38.46
2022-08-10T13:06:50.413Z,38.16
2022-08-10T13:09:24.849Z,38.68
2022-08-10T13:12:38.160Z,40.40
2022-08-10T13:14:57.135Z,38.74
2022-08-10T13:17:39.546Z,40.61
2022-08-10T13:20:21.461Z,41.71
2022-08-10T13:22:55.785Z,39.36
2022-08-10T13:25:32.874Z,41.63
2022-08-10T13:28:37.531Z,39.67
2022-08-10T13:30:58.767Z,41.18
2022-08-10T13:34:39.143Z,40.38
2022-08-10T13:36:31.930Z,41.64
2022-08-10T13:39:03.505Z,41.78
2022-08-10T13:41:39.915Z,41.55
2022-08-10T13:44:13.802Z,43.45
2022-08-10T13:46:51.047Z,41.94
2022-08-10T13:49:22.566Z,41.32
2022-08-10T13:51:58.225Z,42.36
2022-08-10T13:54:37.329Z,43.30
2022-08-10T13:57:07.859Z,42.48
2022-08-10T14:00:35.449Z,42.77
2022-08-10T14:02:35.233Z,40.17
2022-08-10T14:05:08.352Z,38.88
2022-08-10T14:07:53.541Z,37.59
2022-08-10T14:11:08.806Z,39.51
2022-08-10T14:13:29.930Z,35.63
2022-08-10T14:16:00.798Z,36.71
2022-08-10T14:18:34.979Z,38.31
2022-08-10T14:21:05.912Z,35.92
2022-08-10T14:23:42.330Z,35.87
2022-08-10T14:26:24.365Z,37.37
2022-08-10T14:28:58.201Z,39.54
2022-08-10T14:31:35.515Z,39.71
2022-08-10T14:34:08.913Z,36.26
2022-08-10T14:36:46.928Z,37.05
2022-08-10T14:39:26.322Z,37.39
2022-08-10T14:42:05.429Z,35.96
2022-08-10T14:44:48.617Z,37.06
2022-08-10T14:47:53.791Z,35.86
2022-08-10T14:50:31.482Z,35.82
2022-08-10T14:53:10.061Z,39.58
2022-08-10T14:55:58.894Z,38.47
2022-08-10T14:58:35.880Z,38.65
2022-08-10T15:01:09.244Z,38.75
2022-08-10T15:04:00.953Z,40.33
2022-08-10T15:06:38.088Z,39.78
2022-08-10T15:09:19.293Z,41.16
2022-08-10T15:12:14.803Z,42.56
2022-08-10T15:14:45.804Z,41.64
2022-08-10T15:17:26.441Z,42.92
2022-08-10T15:20:04.312Z,41.00
2022-08-10T15:22:50.171Z,44.11
2022-08-10T15:25:26.011Z,41.56
2022-08-10T15:28:05.278Z,43.01
2022-08-10T15:30:42.875Z,42.20
2022-08-10T15:34:02.653Z,42.75
2022-08-10T15:36:44.752Z,41.86
2022-08-10T15:40:25.359Z,40.62
2022-08-10T15:42:21.279Z,39.46
2022-08-10T15:44:53.584Z,41.91
2022-08-10T15:47:28.101Z,42.51
2022-08-10T15:50:22.970Z,43.52
2022-08-10T15:53:02.355Z,40.67
2022-08-10T15:55:43.375Z,43.24
2022-08-10T15:58:37.717Z,41.35
2022-08-10T16:02:13.817Z,40.98
2022-08-10T16:04:09.199Z,40.02
2022-08-10T16:06:44.750Z,39.86
2022-08-10T16:10:22.196Z,38.21
2022-08-10T16:12:29.450Z,41.10
2022-08-10T16:15:08.130Z,43.37
2022-08-10T16:17:54.663Z,42.69
2022-08-10T16:20:31.403Z,40.54
2022-08-10T16:23:09.904Z,42.20
2022-08-10T16:25:48.274Z,40.70
2022-08-10T16:28:30.336Z,40.35
2022-08-10T16:31:05.229Z,42.35
2022-08-10T16:33:53.562Z,45.02
2022-08-10T16:36:32.282Z,42.71
2022-08-10T16:39:03.013Z,41.99
2022-08-10T16:42:03.232Z,45.20
2022-08-10T16:44:30.569Z,45.14
2022-08-10T16:47:03.318Z,47.11
2022-08-10T16:49:39.723Z,44.98
2022-08-10T16:52:12.068Z,48.02
2022-08-10T16:54:44.048Z,48.20
2022-08-10T16:57:21.619Z,46.04
2022-08-10T16:59:55.886Z,46.41
2022-08-10T17:02:28.537Z,47.05
2022-08-10T17:05:01.628Z,47.95
2022-08-10T17:07:33.863Z,48.78
2022-08-10T17:10:08.025Z,49.64
2022-08-10T17:12:41.224Z,51.96
2022-08-10T17:15:11.815Z,48.28
2022-08-10T17:17:48.130Z,50.64
2022-08-10T17:20:30.601Z,52.22
2022-08-10T17:23:11.161Z,55.49
2022-08-10T17:25:45.916Z,50.72
2022-08-10T17:28:32.857Z,55.81
2022-08-10T17:31:23.610Z,54.21
2022-08-10T17:34:12.042Z,56.65
2022-08-10T17:36:46.528Z,60.33
2022-08-10T17:39:21.253Z,62.87
2022-08-10T17:41:55.290Z,62.59
2022-08-10T17:44:25.505Z,63.71
2022-08-10T17:46:55.849Z,63.29
2022-08-10T17:49:27.062Z,63.87
2022-08-10T17:52:02.650Z,63.56
2022-08-10T17:54:34.843Z,63.40
2022-08-10T17:57:10.753Z,63.55
2022-08-10T17:59:42.047Z,65.72
2022-08-10T18:02:15.900Z,64.90
2022-08-10T18:04:53.015Z,65.82
2022-08-10T18:07:29.134Z,65.67
2022-08-10T18:10:01.515Z,65.90
2022-08-10T18:12:40.419Z,66.58
2022-08-10T18:15:13.660Z,67.07
2022-08-10T18:17:47.971Z,67.51
2022-08-10T18:20:27.769Z,67.49
2022-08-10T18:22:59.326Z,68.09
2022-08-10T18:25:33.194Z,67.43
2022-08-10T18:28:09.167Z,66.91
2022-08-10T18:30:48.677Z,68.02
2022-08-10T18:33:22.071Z,68.29
2022-08-10T18:35:54.433Z,69.18
2022-08-10T18:38:25.689Z,70.20
2022-08-10T18:41:08.219Z,70.06
2022-08-10T18:44:07.451Z,70.57
2022-08-10T18:46:46.182Z,71.33
2022-08-10T18:49:29.913Z,71.72
2022-08-10T18:52:04.688Z,72.68
2022-08-10T18:54:44.647Z,73.88
2022-08-10T18:57:32.358Z,74.00
2022-08-10T19:00:10.560Z,74.54
2022-08-10T19:03:18.928Z,75.47
2022-08-10T19:06:14.073Z,75.27
2022-08-10T19:09:47.563Z,75.89
2022-08-10T19:12:33.065Z,75.81
2022-08-10T19:15:16.975Z,75.81
2022-08-10T19:18:06.094Z,75.63
2022-08-10T19:20:44.845Z,76.31
2022-08-10T19:23:38.783Z,77.09
2022-08-10T19:26:44.341Z,77.48
2022-08-10T19:30:05.012Z,78.38
2022-08-10T19:32:39.763Z,78.98
2022-08-10T19:35:21.501Z,78.86
2022-08-10T19:38:06.949Z,79.75
2022-08-10T19:41:00.471Z,80.32
2022-08-10T19:44:00.329Z,80.23
2022-08-10T19:46:42.010Z,81.03
2022-08-10T19:49:32.213Z,81.18
2022-08-10T19:52:22.611Z,82.13
2022-08-10T19:55:04.973Z,82.17
2022-08-10T19:57:45.237Z,82.97
2022-08-10T20:00:22.941Z,82.81
2022-08-10T20:03:18.042Z,82.31
2022-08-10T20:06:17.896Z,82.40
2022-08-10T20:08:56.692Z,82.20
2022-08-10T20:11:45.057Z,82.45
2022-08-10T20:14:23.471Z,82.79
2022-08-10T20:17:10.794Z,82.87
2022-08-10T20:19:54.852Z,83.24
2022-08-10T20:22:30.408Z,84.21
2022-08-10T20:25:11.488Z,84.58
2022-08-10T20:28:00.331Z,84.53
2022-08-10T20:30:35.706Z,84.54
2022-08-10T20:33:13.324Z,84.70
2022-08-10T20:35:51.175Z,84.94
2022-08-10T20:38:29.454Z,85.71
2022-08-10T20:41:13.202Z,86.45
2022-08-10T20:43:57.591Z,86.10
2022-08-10T20:46:33.670Z,85.90
2022-08-10T20:49:28.145Z,85.33
2022-08-10T20:52:02.343Z,85.70
2022-08-10T20:54:35.893Z,85.44
2022-08-10T20:57:54.856Z,86.23
2022-08-10T21:00:25.188Z,87.29
2022-08-10T21:03:43.749Z,85.23
2022-08-10T21:06:43.388Z,85.53
2022-08-10T21:09:34.510Z,86.03
2022-08-10T21:13:09.171Z,86.96
2022-08-10T21:15:56.219Z,86.36
2022-08-10T21:18:46.823Z,86.89
2022-08-10T21:22:04.115Z,86.91
2022-08-10T21:24:59.429Z,87.53
2022-08-10T21:27:59.005Z,87.59
2022-08-10T21:30:44.926Z,87.74
2022-08-10T21:33:22.705Z,87.93
2022-08-10T21:35:57.203Z,87.50
2022-08-10T21:38:37.227Z,87.11
2022-08-10T21:41:57.529Z,87.75
2022-08-10T21:45:17.098Z,88.03
2022-08-10T21:48:18.729Z,88.64
2022-08-10T21:51:16.408Z,88.98
2022-08-10T21:54:26.494Z,89.10
2022-08-10T21:57:24.593Z,89.59
2022-08-10T22:03:25.812Z,89.95
2022-08-10T22:06:28.870Z,90.51
2022-08-10T22:09:26.402Z,91.09
2022-08-10T22:12:30.808Z,91.17
2022-08-10T22:16:03.817Z,91.46
2022-08-10T22:18:53.876Z,92.01
2022-08-10T22:22:20.046Z,92.32
2022-08-10T22:25:39.734Z,92.43
2022-08-10T22:28:26.098Z,92.87
2022-08-10T22:34:58.945Z,92.39
2022-08-10T22:37:59.839Z,92.73
2022-08-10T22:41:02.981Z,92.42
2022-08-10T22:43:53.119Z,92.56
2022-08-10T22:46:44.504Z,92.68
2022-08-10T22:49:12.657Z,92.03
2022-08-10T22:51:54.895Z,92.74
2022-08-10T22:54:50.140Z,93.04
2022-08-10T22:57:38.683Z,93.38
2022-08-10T23:00:15.075Z,93.74
2022-08-10T23:02:54.211Z,94.01
2022-08-10T23:05:33.611Z,94.17
2022-08-10T23:08:29.421Z,94.17
2022-08-10T23:11:07.064Z,94.05
2022-08-10T23:13:45.340Z,94.23
2022-08-10T23:16:37.878Z,94.50
2022-08-10T23:19:17.159Z,94.98
2022-08-10T23:22:04.741Z,95.35
2022-08-10T23:24:39.089Z,95.26
2022-08-10T23:27:38.488Z,95.15
2022-08-10T23:30:11.213Z,95.20
2022-08-10T23:32:52.124Z,95.98
2022-08-10T23:36:30.597Z,95.57
2022-08-10T23:38:22.093Z,95.63
2022-08-10T23:40:54.829Z,96.38
2022-08-10T23:43:46.769Z,96.46
2022-08-10T23:46:25.103Z,96.69
2022-08-10T23:48:59.473Z,96.76
2022-08-10T23:51:54.590Z,96.58
2022-08-10T23:54:25.963Z,97.33
2022-08-10T23:57:01.874Z,96.72
2022-08-10T23:59:33.679Z,97.56
